Time;durP1;ratioP1;P1;durP2;ratioP2;P2;SDS_P1;SDS_P2;PMS_P1;PMS_P2;Temp;Humidity;BMP_temperature;BMP_pressure;BME280_temperature;BME280_humidity;BME280_pressure;Samples;Min_cycle;Max_cycle;Signal;HPM_P1;HPM_P2
2022/01/11 00:00:09;;;;;;;5.90;2.35;;;;;;;20.20;31.79;102922.00;7315877;19;130998;-61
2022/01/11 00:02:41;;;;;;;3.58;2.53;;;;;;;20.19;31.50;102925.00;7317226;19;129338;-61
2022/01/11 00:05:09;;;;;;;3.20;2.40;;;;;;;20.16;31.62;102926.28;7317034;19;128976;-61
2022/01/11 00:07:36;;;;;;;4.97;2.15;;;;;;;20.15;31.35;102930.13;7313153;19;131890;-62
2022/01/11 00:10:06;;;;;;;4.38;2.17;;;;;;;20.12;31.40;102916.66;7318484;19;132268;-61
2022/01/11 00:12:33;;;;;;;4.97;2.42;;;;;;;20.08;31.67;102921.78;7313288;19;129536;-61
2022/01/11 00:15:00;;;;;;;2.85;1.80;;;;;;;20.07;31.46;102921.97;7318787;19;130649;-61
2022/01/11 00:17:26;;;;;;;3.83;2.45;;;;;;;20.04;31.46;102923.25;7312488;19;131098;-61
2022/01/11 00:19:53;;;;;;;4.65;2.20;;;;;;;20.03;31.68;102921.53;7317592;19;131516;-61
2022/01/11 00:22:26;;;;;;;7.43;2.20;;;;;;;20.02;31.60;102918.97;7313207;19;132221;-61
2022/01/11 00:24:52;;;;;;;3.50;2.17;;;;;;;19.99;31.54;102921.09;7314282;19;128942;-62
2022/01/11 00:27:19;;;;;;;4.20;2.20;;;;;;;19.97;31.73;102923.19;7317033;19;131100;-61
2022/01/11 00:29:50;;;;;;;4.63;2.33;;;;;;;19.95;31.93;102908.63;7313430;19;130915;-61
2022/01/11 00:32:26;;;;;;;3.95;2.30;;;;;;;19.94;31.99;102911.63;7317537;19;129006;-61
2022/01/11 00:34:55;;;;;;;8.53;2.00;;;;;;;19.92;31.44;102914.63;7312307;19;131531;-61
2022/01/11 00:37:22;;;;;;;4.03;1.95;;;;;;;19.91;31.83;102912.03;7314330;19;131146;-61
2022/01/11 00:39:50;;;;;;;4.07;2.33;;;;;;;19.90;31.66;102910.31;7312823;19;131109;-61
2022/01/11 00:42:18;;;;;;;4.72;2.30;;;;;;;19.89;31.94;102903.03;7316231;19;128746;-61
2022/01/11 00:44:45;;;;;;;2.85;2.10;;;;;;;19.87;32.03;102894.94;7313988;19;130165;-61
2022/01/11 00:47:12;;;;;;;3.55;2.25;;;;;;;19.84;31.76;102901.78;7313398;19;131331;-62
2022/01/11 00:49:40;;;;;;;5.45;2.25;;;;;;;19.84;31.73;102917.56;7317066;19;131994;-61
2022/01/11 00:52:09;;;;;;;6.18;2.50;;;;;;;19.82;31.97;102919.69;7311534;19;130040;-61
2022/01/11 00:54:35;;;;;;;4.85;2.47;;;;;;;19.80;31.49;102910.72;7317528;19;129869;-61
2022/01/11 00:57:03;;;;;;;7.10;2.28;;;;;;;19.79;31.84;102922.91;7313392;19;131271;-61
2022/01/11 00:59:29;;;;;;;4.70;2.45;;;;;;;19.78;31.76;102923.94;7315506;19;131332;-61
2022/01/11 01:01:56;;;;;;;4.82;2.50;;;;;;;19.77;32.05;102927.78;7311853;19;130336;-61
2022/01/11 01:04:23;;;;;;;3.33;2.10;;;;;;;19.75;31.62;102924.34;7313129;19;134332;-61
2022/01/11 01:06:50;;;;;;;3.17;2.20;;;;;;;19.73;31.84;102938.47;7315236;19;130978;-61
2022/01/11 01:09:16;;;;;;;7.95;2.38;;;;;;;19.69;31.90;102921.31;7313193;19;131846;-61
2022/01/11 01:11:44;;;;;;;5.03;2.25;;;;;;;19.69;31.82;102924.09;7316716;19;129910;-61
2022/01/11 01:14:11;;;;;;;5.90;2.30;;;;;;;19.68;31.92;102930.75;7310883;19;129030;-62
2022/01/11 01:16:39;;;;;;;6.60;2.28;;;;;;;19.66;31.92;102937.53;7313995;19;131003;-62
2022/01/11 01:19:06;;;;;;;6.32;2.47;;;;;;;19.64;31.88;102934.97;7312861;19;131067;-61
2022/01/11 01:21:37;;;;;;;4.65;2.60;;;;;;;19.62;32.11;102931.53;7313729;19;128855;-61
2022/01/11 01:24:09;;;;;;;4.18;2.00;;;;;;;19.61;31.98;102938.16;7313188;19;129059;-61
2022/01/11 01:26:38;;;;;;;4.90;2.42;;;;;;;19.59;31.93;102931.94;7312538;19;131880;-62
2022/01/11 01:29:04;;;;;;;4.40;2.53;;;;;;;19.59;31.90;102929.16;7315405;19;131250;-61
2022/01/11 01:31:32;;;;;;;4.15;2.70;;;;;;;19.57;31.88;102928.50;7309830;19;130552;-61
2022/01/11 01:33:59;;;;;;;4.55;2.25;;;;;;;19.56;31.85;102923.19;7315159;19;128867;-61
2022/01/11 01:36:26;;;;;;;3.90;2.17;;;;;;;19.55;32.06;102930.66;7309375;19;131365;-61
2022/01/11 01:38:53;;;;;;;6.22;2.30;;;;;;;19.54;32.16;102942.81;7314231;19;132179;-62
2022/01/11 01:41:21;;;;;;;5.75;2.22;;;;;;;19.53;32.21;102957.75;7311496;19;129058;-62
2022/01/11 01:43:51;;;;;;;4.43;2.38;;;;;;;19.51;32.11;102951.56;7312951;19;128766;-61
2022/01/11 01:46:18;;;;;;;4.43;2.10;;;;;;;19.49;32.11;102940.66;7312527;19;131723;-61
2022/01/11 01:48:46;;;;;;;4.68;2.40;;;;;;;19.49;32.25;102949.00;7312839;19;131203;-61
2022/01/11 01:51:13;;;;;;;8.35;2.22;;;;;;;19.48;32.03;102943.63;7313750;19;129998;-61
2022/01/11 01:53:44;;;;;;;3.80;2.20;;;;;;;19.47;32.31;102951.09;7312485;19;129011;-61
2022/01/11 01:56:11;;;;;;;3.60;2.20;;;;;;;19.44;31.98;102945.94;7314789;19;131097;-62
2022/01/11 01:58:38;;;;;;;7.22;2.20;;;;;;;19.44;32.33;102951.50;7309533;19;131148;-61
2022/01/11 02:01:06;;;;;;;4.03;2.20;;;;;;;19.43;31.87;102943.38;7313709;19;130493;-61
2022/01/11 02:03:40;;;;;;;3.42;2.38;;;;;;;19.42;32.33;102950.00;7309991;19;128906;-60
2022/01/11 02:06:09;;;;;;;7.53;2.28;;;;;;;19.42;32.11;102963.88;7312595;19;132979;-61
2022/01/11 02:08:36;;;;;;;3.55;2.30;;;;;;;19.40;32.09;102950.19;7311636;19;136686;-61
2022/01/11 02:11:04;;;;;;;3.67;2.20;;;;;;;19.38;32.36;102957.88;7311653;19;129405;-61
2022/01/11 02:13:31;;;;;;;6.70;2.40;;;;;;;19.37;32.09;102956.16;7313844;19;130503;-60
2022/01/11 02:15:59;;;;;;;5.47;2.50;;;;;;;19.37;32.15;102962.56;7310224;19;131070;-61
2022/01/11 02:18:27;;;;;;;5.82;2.78;;;;;;;19.36;32.28;102957.22;7314738;19;131754;-61
2022/01/11 02:20:57;;;;;;;3.22;2.28;;;;;;;19.35;31.85;102970.22;7308724;19;129488;-60
2022/01/11 02:23:25;;;;;;;4.50;2.58;;;;;;;19.34;32.05;102976.81;7314286;19;129056;-61
2022/01/11 02:25:52;;;;;;;5.88;2.80;;;;;;;19.34;32.30;102975.97;7310347;19;131026;-61
2022/01/11 02:28:22;;;;;;;4.03;2.40;;;;;;;19.34;31.87;102981.53;7312277;19;132306;-61
2022/01/11 02:30:50;;;;;;;4.32;2.88;;;;;;;19.31;32.17;102974.47;7310848;19;129385;-61
2022/01/11 02:33:34;;;;;;;4.45;2.67;;;;;;;19.32;32.19;102981.72;7310388;19;128930;-61
2022/01/11 02:36:08;;;;;;;5.75;2.88;;;;;;;19.30;32.27;102983.00;7311910;19;131154;-61
2022/01/11 02:38:35;;;;;;;7.00;2.40;;;;;;;19.28;32.18;102980.41;7308604;19;131146;-61
2022/01/11 02:41:03;;;;;;;9.75;2.30;;;;;;;19.27;32.11;102984.25;7312716;19;129280;-60
2022/01/11 02:43:30;;;;;;;8.07;2.30;;;;;;;19.25;32.06;102983.59;7311269;19;131891;-61
2022/01/11 02:46:01;;;;;;;5.70;2.30;;;;;;;19.24;31.94;102992.97;7312110;19;134215;-61
2022/01/11 02:48:28;;;;;;;5.05;2.38;;;;;;;19.22;31.96;102995.97;7311086;19;131192;-61
2022/01/11 02:50:55;;;;;;;5.30;2.30;;;;;;;19.21;32.38;102991.47;7309080;19;128873;-61
2022/01/11 02:53:22;;;;;;;3.92;2.10;;;;;;;19.21;32.44;102991.47;7313702;19;129385;-61
2022/01/11 02:55:49;;;;;;;5.20;2.80;;;;;;;19.20;32.18;102994.41;7309035;19;135776;-60
2022/01/11 02:58:16;;;;;;;3.03;2.15;;;;;;;19.19;31.97;103001.88;7312023;19;131224;-60
2022/01/11 03:00:43;;;;;;;7.43;2.78;;;;;;;19.18;31.96;103000.16;7308104;19;128914;-61
2022/01/11 03:03:22;;;;;;;5.10;2.42;;;;;;;19.18;32.32;103008.47;7312068;19;129038;-61
2022/01/11 03:05:52;;;;;;;7.03;2.50;;;;;;;19.17;32.26;103006.75;7307217;19;132256;-61
2022/01/11 03:08:21;;;;;;;6.32;2.55;;;;;;;19.16;32.26;103004.19;7310957;19;132810;-61
2022/01/11 03:10:49;;;;;;;4.60;2.42;;;;;;;19.15;32.30;102997.75;7312278;19;128997;-60
2022/01/11 03:13:16;;;;;;;4.47;2.30;;;;;;;19.15;32.36;102996.91;7310377;19;129056;-61
2022/01/11 03:15:45;;;;;;;3.75;2.40;;;;;;;19.13;32.21;103004.56;7312295;19;131122;-60
2022/01/11 03:18:12;;;;;;;4.40;2.50;;;;;;;19.13;32.25;102996.25;7308320;19;131121;-61
2022/01/11 03:20:42;;;;;;;5.65;2.58;;;;;;;19.12;32.49;103000.09;7312228;19;128947;-61
2022/01/11 03:23:10;;;;;;;4.50;2.50;;;;;;;19.10;32.35;102993.88;7308337;19;131346;-61
2022/01/11 03:25:36;;;;;;;6.20;2.17;;;;;;;19.09;32.05;102998.56;7310042;19;131280;-61
2022/01/11 03:28:03;;;;;;;4.53;2.30;;;;;;;19.07;32.22;102990.47;7309129;19;130971;-61
2022/01/11 03:30:31;;;;;;;6.18;2.28;;;;;;;19.07;32.27;102995.13;7309591;19;129478;-61
2022/01/11 03:32:58;;;;;;;4.80;2.40;;;;;;;19.05;32.03;102992.56;7312156;19;129139;-61
2022/01/11 03:35:26;;;;;;;3.30;2.17;;;;;;;19.05;32.17;102987.03;7305054;19;132270;-61
2022/01/11 03:37:53;;;;;;;6.32;2.38;;;;;;;19.03;32.18;102994.69;7310392;19;131214;-61
2022/01/11 03:40:23;;;;;;;7.25;2.83;;;;;;;19.03;32.33;102988.25;7307259;19;128938;-61
2022/01/11 03:42:50;;;;;;;5.95;2.40;;;;;;;19.01;32.23;102988.47;7318264;19;131154;-61
2022/01/11 03:45:21;;;;;;;5.88;2.55;;;;;;;19.00;32.19;102985.91;7315088;19;131108;-61
2022/01/11 03:47:51;;;;;;;5.93;2.80;;;;;;;18.99;31.91;102987.81;7317267;19;131209;-61
2022/01/11 03:50:19;;;;;;;7.90;2.22;;;;;;;18.98;32.02;102980.53;7316685;19;129848;-61
2022/01/11 03:52:46;;;;;;;5.88;2.30;;;;;;;18.97;31.96;102981.59;7316554;19;128895;-61
2022/01/11 03:55:21;;;;;;;7.70;2.53;;;;;;;18.95;32.36;102994.81;7318274;19;131134;-61
2022/01/11 03:57:48;;;;;;;4.65;2.65;;;;;;;18.95;31.91;102994.81;7314029;19;131097;-61
2022/01/11 04:00:18;;;;;;;7.75;2.70;;;;;;;18.93;32.46;102996.94;7318612;19;129148;-61
2022/01/11 04:02:45;;;;;;;5.93;2.55;;;;;;;18.93;32.41;103008.03;7313034;19;129326;-61
2022/01/11 04:05:13;;;;;;;5.53;2.42;;;;;;;18.91;32.20;103001.81;7317543;19;131767;-61
2022/01/11 04:07:42;;;;;;;4.97;2.33;;;;;;;18.90;32.35;103011.19;7314378;19;131966;-60
2022/01/11 04:10:09;;;;;;;5.35;2.63;;;;;;;18.89;31.91;103015.00;7316616;19;128901;-61
2022/01/11 04:12:36;;;;;;;6.32;2.80;;;;;;;18.87;32.14;103018.00;7316573;19;128918;-60
2022/01/11 04:15:03;;;;;;;4.80;3.05;;;;;;;18.88;32.00;103018.84;7310957;19;131354;-61
2022/01/11 04:17:30;;;;;;;6.78;3.30;;;;;;;18.86;31.97;103027.38;7316595;19;131886;-61
2022/01/11 04:19:57;;;;;;;4.35;2.58;;;;;;;18.85;31.94;103024.78;7312018;19;128906;-61
2022/01/11 04:22:23;;;;;;;6.88;2.83;;;;;;;18.84;31.92;103017.50;7316810;19;129162;-60
2022/01/11 04:24:50;;;;;;;7.30;2.50;;;;;;;18.83;32.25;103018.59;7315486;19;133433;-60
2022/01/11 04:27:17;;;;;;;7.25;2.90;;;;;;;18.82;31.88;103014.94;7316534;19;131053;-61
2022/01/11 04:29:43;;;;;;;4.63;2.75;;;;;;;18.81;32.33;103006.84;7314865;19;129547;-60
2022/01/11 04:32:10;;;;;;;5.65;2.67;;;;;;;18.80;32.07;103014.28;7314013;19;129414;-61
2022/01/11 04:34:37;;;;;;;4.57;2.70;;;;;;;18.80;31.88;103018.97;7317093;19;131193;-61
2022/01/11 04:37:04;;;;;;;5.15;2.47;;;;;;;18.80;32.35;103011.50;7312115;19;131049;-60
2022/01/11 04:39:31;;;;;;;7.40;2.67;;;;;;;18.79;32.03;103015.34;7317338;19;130003;-61
2022/01/11 04:41:57;;;;;;;4.85;2.55;;;;;;;18.80;31.92;103018.97;7311165;19;129080;-61
2022/01/11 04:44:24;;;;;;;6.43;2.63;;;;;;;18.77;32.32;103020.22;7316041;19;131980;-61
2022/01/11 04:46:51;;;;;;;5.25;2.10;;;;;;;18.75;32.07;103009.31;7313513;19;130869;-60
2022/01/11 04:49:18;;;;;;;5.07;2.30;;;;;;;18.75;32.30;103014.88;7315213;19;128893;-62
2022/01/11 04:51:46;;;;;;;5.72;2.53;;;;;;;18.75;32.17;103020.41;7313206;19;128951;-61
2022/01/11 04:54:13;;;;;;;3.72;2.35;;;;;;;18.74;32.15;103012.31;7311838;19;131157;-61
2022/01/11 04:56:40;;;;;;;4.80;2.63;;;;;;;18.72;32.08;103009.72;7317332;19;130918;-61
2022/01/11 04:59:07;;;;;;;4.57;2.15;;;;;;;18.73;32.01;103011.44;7308987;19;129560;-61
2022/01/11 05:01:34;;;;;;;5.05;2.58;;;;;;;18.72;31.95;103004.16;7316124;19;129037;-60
2022/01/11 05:04:01;;;;;;;5.70;2.80;;;;;;;18.72;32.31;103009.72;7312021;19;131733;-61
2022/01/11 05:06:28;;;;;;;5.22;2.42;;;;;;;18.71;32.00;103010.75;7315079;19;131200;-61
2022/01/11 05:08:54;;;;;;;3.33;2.30;;;;;;;18.70;32.16;103014.63;7312710;19;129776;-60
2022/01/11 05:11:22;;;;;;;5.40;2.60;;;;;;;18.70;31.92;103006.31;7313833;19;129582;-60
2022/01/11 05:13:49;;;;;;;6.88;2.50;;;;;;;18.71;32.10;103005.22;7314914;19;131117;-61
2022/01/11 05:16:16;;;;;;;2.85;2.10;;;;;;;18.71;31.87;102999.66;7312805;19;132006;-61
2022/01/11 05:18:43;;;;;;;4.70;2.53;;;;;;;18.70;32.04;103009.06;7314817;19;129780;-61
2022/01/11 05:21:09;;;;;;;3.97;2.25;;;;;;;18.70;31.91;103008.19;7309957;19;130033;-61
2022/01/11 05:23:36;;;;;;;4.53;2.30;;;;;;;18.69;32.04;103012.91;7315533;19;131161;-61
2022/01/11 05:26:03;;;;;;;3.22;2.10;;;;;;;18.69;31.84;103004.56;7312268;19;132000;-61
2022/01/11 05:28:31;;;;;;;2.90;2.25;;;;;;;18.69;32.10;103009.25;7314679;19;129189;-61
2022/01/11 05:30:57;;;;;;;6.57;2.55;;;;;;;18.69;32.12;103009.25;7311561;19;129606;-61
2022/01/11 05:33:24;;;;;;;5.25;1.98;;;;;;;18.68;31.76;103008.41;7312019;19;131443;-61
2022/01/11 05:35:51;;;;;;;3.85;2.30;;;;;;;18.68;32.05;103013.94;7315216;19;131267;-61
2022/01/11 05:38:18;;;;;;;4.10;2.38;;;;;;;18.68;32.07;103016.72;7311602;19;131151;-61
2022/01/11 05:40:45;;;;;;;4.90;2.38;;;;;;;18.67;31.75;103017.78;7315507;19;129000;-61
2022/01/11 05:43:14;;;;;;;4.65;2.40;;;;;;;18.66;32.14;103015.19;7311577;19;131045;-60
2022/01/11 05:45:42;;;;;;;2.67;2.00;;;;;;;18.67;31.91;103020.53;7313629;19;131117;-61
2022/01/11 05:48:08;;;;;;;3.63;2.50;;;;;;;18.66;31.95;103021.59;7307619;19;129396;-61
2022/01/11 05:50:37;;;;;;;7.00;2.30;;;;;;;18.65;32.04;103025.41;7310351;19;130580;-61
2022/01/11 05:53:04;;;;;;;3.83;2.17;;;;;;;18.64;32.16;103025.63;7313143;19;131876;-61
2022/01/11 05:55:31;;;;;;;5.10;2.10;;;;;;;18.64;31.95;103032.03;7310803;19;131237;-61
2022/01/11 05:57:58;;;;;;;4.45;2.35;;;;;;;18.64;32.13;103043.09;7315255;19;129091;-61
2022/01/11 06:00:25;;;;;;;3.65;2.00;;;;;;;18.64;31.95;103039.50;7307539;19;128994;-61
2022/01/11 06:02:54;;;;;;;8.38;2.60;;;;;;;18.63;31.80;103049.69;7313099;19;131118;-61
2022/01/11 06:05:23;;;;;;;4.13;2.50;;;;;;;18.64;31.86;103056.13;7305462;19;132064;-60
2022/01/11 06:07:50;;;;;;;3.15;2.15;;;;;;;18.63;32.12;103049.69;7311317;19;128991;-61
2022/01/11 06:10:18;;;;;;;5.95;2.40;;;;;;;18.62;31.92;103047.97;7308887;19;129716;-61
2022/01/11 06:12:45;;;;;;;4.05;2.30;;;;;;;18.61;32.28;103062.91;7309651;19;131264;-61
2022/01/11 06:15:11;;;;;;;4.18;2.13;;;;;;;18.61;32.06;103051.81;7311088;19;131045;-61
2022/01/11 06:17:39;;;;;;;3.47;2.28;;;;;;;18.59;32.08;103059.44;7308126;19;128908;-61
2022/01/11 06:20:06;;;;;;;5.22;2.47;;;;;;;18.58;31.91;103055.00;7310455;19;128966;-61
2022/01/11 06:22:33;;;;;;;3.65;2.05;;;;;;;18.58;31.86;103058.59;7306527;19;131465;-61
2022/01/11 06:25:04;;;;;;;5.10;2.10;;;;;;;18.60;31.97;103061.16;7311143;19;131027;-61
2022/01/11 06:27:32;;;;;;;3.40;2.22;;;;;;;18.66;31.87;103063.19;7307696;19;129397;-61
2022/01/11 06:29:59;;;;;;;3.20;1.90;;;;;;;18.81;31.89;103063.13;7312770;19;130797;-61
2022/01/11 06:32:26;;;;;;;2.53;1.70;;;;;;;19.03;31.76;103072.34;7310272;19;131040;-61
2022/01/11 06:34:53;;;;;;;2.80;1.80;;;;;;;19.29;31.75;103065.41;7309216;19;131735;-61
2022/01/11 06:37:20;;;;;;;2.65;1.77;;;;;;;19.57;31.48;103064.56;7312334;19;131451;-61
2022/01/11 06:39:47;;;;;;;3.35;1.92;;;;;;;19.89;30.69;103059.47;7308412;19;129046;-61
2022/01/11 06:42:13;;;;;;;3.05;1.75;;;;;;;20.21;30.40;103075.75;7312799;19;132656;-61
2022/01/11 06:44:42;;;;;;;2.88;1.80;;;;;;;20.49;30.13;103078.44;7303117;19;131132;-61
2022/01/11 06:47:09;;;;;;;2.72;1.70;;;;;;;20.74;30.25;103080.69;7311138;19;129178;-61
2022/01/11 06:49:36;;;;;;;2.50;1.80;;;;;;;20.97;29.93;103082.28;7308571;19;131979;-61
2022/01/11 06:52:04;;;;;;;3.35;1.98;;;;;;;21.15;29.75;103088.13;7310458;19;131221;-61
2022/01/11 06:54:31;;;;;;;5.72;2.17;;;;;;;21.25;28.95;103089.63;7308598;19;131011;-62
2022/01/11 06:56:57;;;;;;;7.30;2.58;;;;;;;21.27;28.63;103082.78;7311812;19;129733;-61
2022/01/11 06:59:24;;;;;;;5.70;2.22;;;;;;;21.29;28.56;103085.38;7309786;19;130328;-61
2022/01/11 07:01:51;;;;;;;8.95;2.10;;;;;;;21.31;28.71;103091.56;7308599;19;131549;-61
2022/01/11 07:04:18;;;;;;;5.00;2.40;;;;;;;21.31;28.39;103088.78;7311825;19;131064;-61
2022/01/11 07:06:45;;;;;;;5.45;1.90;;;;;;;21.28;28.41;103095.63;7308415;19;128897;-61
2022/01/11 07:09:12;;;;;;;4.70;2.08;;;;;;;21.25;28.77;103089.63;7312368;19;129002;-62
2022/01/11 07:11:38;;;;;;;5.05;2.10;;;;;;;21.19;28.59;103091.34;7310101;19;131335;-61
2022/01/11 07:14:05;;;;;;;6.75;2.10;;;;;;;21.12;28.86;103096.88;7311263;19;131413;-62
2022/01/11 07:16:32;;;;;;;7.75;2.13;;;;;;;21.05;28.64;103090.44;7316755;19;129001;-61
2022/01/11 07:19:00;;;;;;;3.28;1.75;;;;;;;20.96;28.56;103088.91;7316846;19;130900;-61
2022/01/11 07:21:27;;;;;;;3.22;1.88;;;;;;;20.87;28.80;103094.69;7320519;19;132103;-61
2022/01/11 07:23:54;;;;;;;3.67;1.90;;;;;;;20.80;29.03;103092.94;7313007;19;131186;-61
2022/01/11 07:26:20;;;;;;;7.97;2.08;;;;;;;20.71;29.01;103095.00;7319365;19;128771;-61
2022/01/11 07:28:47;;;;;;;3.88;2.20;;;;;;;20.65;29.49;103095.84;7317451;19;129235;-60
2022/01/11 07:31:15;;;;;;;3.58;1.77;;;;;;;20.55;29.16;103097.09;7317214;19;131236;-61
2022/01/11 07:33:42;;;;;;;6.07;2.20;;;;;;;20.49;29.49;103103.47;7319061;19;131102;-61
2022/01/11 07:36:08;;;;;;;3.55;1.80;;;;;;;20.42;29.33;103108.16;7314793;19;130387;-61
2022/01/11 07:38:35;;;;;;;5.13;2.00;;;;;;;20.36;29.87;103120.97;7318461;19;130511;-61
2022/01/11 07:41:02;;;;;;;4.20;1.83;;;;;;;20.29;29.62;103123.69;7316973;19;131315;-61
2022/01/11 07:43:28;;;;;;;4.63;2.03;;;;;;;20.21;29.76;103123.00;7317046;19;131056;-61
2022/01/11 07:45:55;;;;;;;4.85;1.88;;;;;;;20.17;30.13;103122.53;7316220;19;129028;-61
2022/01/11 07:48:22;;;;;;;4.35;2.00;;;;;;;20.17;30.03;103139.22;7316702;19;129153;-61
2022/01/11 07:50:49;;;;;;;3.08;1.48;;;;;;;20.22;29.96;103147.78;7318769;19;131178;-61
2022/01/11 07:53:15;;;;;;;4.43;1.90;;;;;;;20.38;30.06;103140.19;7315527;19;131143;-61
2022/01/11 07:55:42;;;;;;;4.07;1.70;;;;;;;20.79;29.46;103142.16;7318920;19;128907;-61
2022/01/11 07:58:09;;;;;;;2.40;1.55;;;;;;;21.35;28.81;103141.03;7315165;19;129134;-61
2022/01/11 08:00:36;;;;;;;6.50;2.10;;;;;;;21.90;28.25;103142.84;7318643;19;131241;-61
2022/01/11 08:03:02;;;;;;;2.40;1.55;;;;;;;22.39;27.60;103143.47;7315831;19;131252;-61
2022/01/11 08:05:29;;;;;;;3.80;1.33;;;;;;;22.92;27.13;103127.59;7317899;19;128989;-61
2022/01/11 08:07:56;;;;;;;2.85;1.50;;;;;;;23.36;26.56;103133.34;7315724;19;129470;-61
2022/01/11 08:10:23;;;;;;;5.15;1.85;;;;;;;23.76;25.94;103132.22;7315932;19;131959;-61
2022/01/11 08:12:50;;;;;;;5.88;1.70;;;;;;;23.76;25.64;103135.00;7319096;19;131488;-61
2022/01/11 08:15:17;;;;;;;3.95;1.50;;;;;;;23.94;25.96;103146.25;7315129;19;129402;-62
2022/01/11 08:17:44;;;;;;;4.47;1.63;;;;;;;23.99;25.84;103133.56;7318896;19;129944;-61
2022/01/11 08:20:11;;;;;;;3.88;1.80;;;;;;;24.38;25.12;103129.50;7313513;19;131950;-61
2022/01/11 08:22:37;;;;;;;4.80;1.63;;;;;;;24.16;25.68;103137.44;7318353;19;130993;-61
2022/01/11 08:25:05;;;;;;;3.58;1.33;;;;;;;24.05;25.79;103143.78;7315112;19;129019;-61
2022/01/11 08:27:33;;;;;;;2.35;1.65;;;;;;;24.00;25.83;103149.25;7315046;19;130163;-62
2022/01/11 08:30:01;;;;;;;2.72;1.50;;;;;;;23.83;26.02;103147.00;7313767;19;131974;-61
2022/01/11 08:32:27;;;;;;;2.78;1.50;;;;;;;23.66;26.32;103147.56;7316322;19;137343;-62
2022/01/11 08:34:54;;;;;;;3.28;1.83;;;;;;;23.53;26.43;103150.44;7317598;19;128592;-61
2022/01/11 08:37:21;;;;;;;2.55;1.60;;;;;;;23.41;26.67;103150.31;7314081;19;129071;-61
2022/01/11 08:39:48;;;;;;;5.72;1.60;;;;;;;23.32;26.74;103149.72;7316130;19;130948;-61
2022/01/11 08:42:15;;;;;;;4.90;1.45;;;;;;;23.25;26.36;103148.03;7313904;19;131982;-61
2022/01/11 08:44:46;;;;;;;4.90;1.50;;;;;;;23.12;26.51;103154.56;7317493;19;131388;-62
2022/01/11 08:47:14;;;;;;;3.65;1.52;;;;;;;23.00;27.24;103162.78;7313715;19;129066;-61
2022/01/11 08:49:41;;;;;;;3.20;1.40;;;;;;;22.85;27.20;103149.09;7316070;19;131197;-61
2022/01/11 08:52:09;;;;;;;2.88;1.63;;;;;;;22.72;27.27;103153.66;7314510;19;131149;-61
2022/01/11 08:54:36;;;;;;;6.38;1.90;;;;;;;22.60;27.05;103166.56;7315199;19;129144;-61
2022/01/11 08:57:04;;;;;;;2.42;1.60;;;;;;;22.48;27.54;103165.53;7316030;19;129122;-61
2022/01/11 08:59:31;;;;;;;3.80;1.73;;;;;;;22.36;27.54;103163.41;7312096;19;131088;-61
2022/01/11 09:02:02;;;;;;;1.95;1.58;;;;;;;22.25;27.81;103161.28;7317568;19;131194;-61
2022/01/11 09:04:29;;;;;;;2.35;1.63;;;;;;;22.14;27.82;103165.53;7314812;19;129073;-61
2022/01/11 09:06:57;;;;;;;3.58;1.45;;;;;;;22.04;27.73;103157.59;7316644;19;130966;-61
2022/01/11 09:09:26;;;;;;;2.40;1.58;;;;;;;21.94;28.04;103160.84;7314278;19;131549;-61
2022/01/11 09:11:53;;;;;;;2.35;1.40;;;;;;;21.85;28.12;103169.63;7314260;19;131121;-61
2022/01/11 09:14:20;;;;;;;2.88;1.60;;;;;;;21.76;28.35;103174.56;7314845;19;128965;-61
2022/01/11 09:16:47;;;;;;;3.42;1.70;;;;;;;21.68;28.39;103178.41;7313201;19;129015;-61
2022/01/11 09:19:15;;;;;;;3.72;1.75;;;;;;;21.60;28.81;103182.25;7316825;19;132406;-61
2022/01/11 09:21:43;;;;;;;2.58;1.50;;;;;;;21.53;28.58;103181.38;7310793;19;131118;-61
2022/01/11 09:24:11;;;;;;;2.25;1.52;;;;;;;21.46;28.70;103186.91;7316824;19;129013;-61
2022/01/11 09:26:41;;;;;;;4.18;1.42;;;;;;;21.39;29.05;103185.16;7312586;19;130499;-61
2022/01/11 09:29:08;;;;;;;6.40;1.80;;;;;;;21.31;29.15;103180.66;7314764;19;131619;-61
2022/01/11 09:31:35;;;;;;;2.63;1.65;;;;;;;21.24;28.72;103179.78;7312365;19;131110;-61
2022/01/11 09:34:02;;;;;;;2.30;1.63;;;;;;;21.18;29.40;103184.25;7303343;19;129067;-62
2022/01/11 09:36:30;;;;;;;2.85;1.70;;;;;;;21.12;28.97;103179.50;7315637;19;128962;-61
2022/01/11 09:38:56;;;;;;;2.22;1.50;;;;;;;21.07;29.49;103185.72;7310645;19;132043;-61
2022/01/11 09:41:23;;;;;;;3.20;1.50;;;;;;;21.01;29.58;103175.44;7314843;19;131018;-61
2022/01/11 09:43:50;;;;;;;4.72;1.77;;;;;;;20.97;29.33;103182.47;7308138;19;129101;-61
2022/01/11 09:46:17;;;;;;;2.08;1.45;;;;;;;20.94;29.68;103185.66;7314279;19;129638;-61
2022/01/11 09:48:45;;;;;;;2.95;1.52;;;;;;;20.87;29.67;103188.41;7312998;19;132524;-61
2022/01/11 09:51:12;;;;;;;1.85;1.40;;;;;;;20.83;29.59;103192.69;7313361;19;131132;-61
2022/01/11 09:53:40;;;;;;;2.17;1.73;;;;;;;20.77;29.61;103187.94;7315802;19;128977;-61
2022/01/11 09:56:08;;;;;;;2.22;1.23;;;;;;;20.73;29.72;103195.81;7311812;19;128864;-61
2022/01/11 09:58:35;;;;;;;2.03;1.48;;;;;;;20.73;29.91;103198.59;7305746;19;133341;-61
2022/01/11 10:01:04;;;;;;;1.73;1.30;;;;;;;20.78;29.92;103195.22;7306955;19;131856;-61
2022/01/11 10:03:52;;;;;;;2.30;1.45;;;;;;;20.82;29.61;103194.59;7313957;19;129192;-61
2022/01/11 10:06:21;;;;;;;2.83;1.63;;;;;;;20.89;29.98;103189.94;7314306;19;132415;-61
2022/01/11 10:08:48;;;;;;;2.75;1.58;;;;;;;20.98;29.40;103190.63;7311010;19;132291;-61
2022/01/11 10:11:33;;;;;;;2.88;1.70;;;;;;;21.05;29.88;103188.72;7312921;19;131266;-62
2022/01/11 10:14:16;;;;;;;2.20;1.40;;;;;;;21.14;29.88;103191.31;7310620;19;128905;-61
2022/01/11 10:16:43;;;;;;;1.77;1.40;;;;;;;21.19;29.66;103197.97;7313349;19;130293;-61
2022/01/11 10:19:22;;;;;;;2.72;1.40;;;;;;;21.27;29.55;103205.28;7310773;19;131233;-61
2022/01/11 10:21:50;;;;;;;3.00;1.63;;;;;;;21.32;29.51;103201.84;7312186;19;131652;-61
2022/01/11 10:24:32;;;;;;;3.05;1.50;;;;;;;21.37;29.27;103204.88;7314086;19;128856;-61
2022/01/11 10:27:03;;;;;;;2.10;1.45;;;;;;;21.41;29.45;103206.19;7310350;19;129989;-61
2022/01/11 10:29:37;;;;;;;2.08;1.38;;;;;;;21.44;29.54;103205.75;7313257;19;132398;-61
2022/01/11 10:32:15;;;;;;;2.70;1.55;;;;;;;21.49;29.71;103202.34;7310249;19;131233;-61
2022/01/11 10:34:47;;;;;;;3.50;1.55;;;;;;;21.51;29.74;103205.78;7311535;19;129177;-61
2022/01/11 10:37:29;;;;;;;2.72;1.45;;;;;;;21.54;29.56;103201.75;7312990;19;129065;-62
2022/01/11 10:40:08;;;;;;;3.65;1.30;;;;;;;21.56;29.51;103210.72;7309167;19;131228;-60
2022/01/11 10:42:39;;;;;;;2.17;1.27;;;;;;;21.57;29.50;103212.44;7312982;19;130848;-61
2022/01/11 10:45:12;;;;;;;3.67;1.77;;;;;;;21.56;29.54;103219.09;7309749;19;128990;-61
2022/01/11 10:47:42;;;;;;;1.45;1.23;;;;;;;21.55;29.34;103225.72;7312051;19;128909;-61
2022/01/11 10:50:28;;;;;;;2.45;1.60;;;;;;;21.53;29.62;103220.38;7308714;19;133524;-61
2022/01/11 10:53:01;;;;;;;2.70;1.55;;;;;;;21.49;29.44;103219.06;7309594;19;131160;-61
2022/01/11 10:55:30;;;;;;;2.30;1.45;;;;;;;21.47;30.06;103221.19;7313109;19;128918;-61
2022/01/11 10:58:12;;;;;;;2.00;1.40;;;;;;;21.40;29.92;103215.59;7309920;19;129511;-61
2022/01/11 11:00:41;;;;;;;1.80;1.35;;;;;;;21.35;30.10;103213.44;7310478;19;131253;-61
2022/01/11 11:03:14;;;;;;;2.38;1.70;;;;;;;21.30;29.48;103220.69;7308833;19;132260;-62
2022/01/11 11:05:53;;;;;;;3.92;2.30;;;;;;;21.20;29.39;103221.09;7310416;19;129062;-61
2022/01/11 11:08:30;;;;;;;2.92;1.90;;;;;;;21.12;29.40;103219.34;7312427;19;130971;-61
2022/01/11 11:11:01;;;;;;;3.58;1.80;;;;;;;21.05;29.30;103219.31;7308101;19;131152;-61
2022/01/11 11:13:35;;;;;;;2.67;1.77;;;;;;;21.00;29.56;103226.56;7312587;19;131195;-61
2022/01/11 11:16:15;;;;;;;2.42;1.60;;;;;;;20.95;29.27;103223.53;7308948;19;129092;-61
2022/01/11 11:18:43;;;;;;;2.88;1.70;;;;;;;20.89;29.66;103226.09;7309615;19;128898;-61
2022/01/11 11:21:25;;;;;;;3.17;2.10;;;;;;;20.87;29.83;103219.00;7308284;19;131791;-61